Time;durP1;ratioP1;P1;durP2;ratioP2;P2;SDS_P1;SDS_P2;PMS_P1;PMS_P2;Temp;Humidity;BMP_temperature;BMP_pressure;BME280_temperature;BME280_humidity;BME280_pressure;Samples;Min_cycle;Max_cycle;Signal;HPM_P1;HPM_P2
2022/10/14 00:01:12;;;;;;;46.90;29.13;;;12.40;99.90;;;;;;4931676;28;20118;-78
2022/10/14 00:03:39;;;;;;;81.70;28.80;;;12.30;99.90;;;;;;4934405;29;20107;-78
2022/10/14 00:06:13;;;;;;;291.35;30.42;;;12.30;99.90;;;;;;4933201;29;20506;-78
2022/10/14 00:08:40;;;;;;;224.13;25.55;;;12.20;99.90;;;;;;4924570;29;20438;-78
2022/10/14 00:11:12;;;;;;;136.90;24.45;;;12.20;99.90;;;;;;4935426;29;20058;-78
2022/10/14 00:13:38;;;;;;;377.08;34.90;;;12.10;99.90;;;;;;4930425;29;20783;-78
2022/10/14 00:16:06;;;;;;;39.45;20.13;;;12.10;99.90;;;;;;4929739;28;20046;-78
2022/10/14 00:18:32;;;;;;;302.52;26.73;;;12.00;99.90;;;;;;4926445;29;20054;-78
2022/10/14 00:21:00;;;;;;;324.65;24.20;;;11.90;99.90;;;;;;4935970;28;20047;-78
2022/10/14 00:23:26;;;;;;;150.90;18.83;;;11.90;99.90;;;;;;4940258;29;20039;-78
2022/10/14 00:25:52;;;;;;;223.77;22.60;;;11.80;99.90;;;;;;4932385;28;20187;-78
2022/10/14 00:28:18;;;;;;;129.20;18.90;;;11.80;99.90;;;;;;4936591;28;20058;-77
2022/10/14 00:30:55;;;;;;;549.42;32.17;;;11.70;99.90;;;;;;4920707;29;20043;-78
2022/10/14 00:33:22;;;;;;;431.80;20.63;;;11.70;99.90;;;;;;4931075;29;20040;-77
2022/10/14 00:35:58;;;;;;;292.00;17.20;;;11.60;99.90;;;;;;4921533;29;20136;-77
2022/10/14 00:38:24;;;;;;;84.78;14.73;;;11.60;99.90;;;;;;4952408;28;20050;-77
2022/10/14 00:40:50;;;;;;;295.75;19.20;;;11.60;99.90;;;;;;4925147;28;20051;-78
2022/10/14 00:43:16;;;;;;;428.45;22.15;;;11.50;99.90;;;;;;4930715;29;20047;-78
2022/10/14 00:45:42;;;;;;;230.52;16.83;;;11.50;99.90;;;;;;4922127;29;20438;-77
2022/10/14 00:48:08;;;;;;;203.52;21.45;;;11.40;99.90;;;;;;4933869;28;20122;-78
2022/10/14 00:50:35;;;;;;;394.48;28.30;;;11.40;99.90;;;;;;4943276;28;20043;-77
2022/10/14 00:53:02;;;;;;;437.05;37.70;;;11.40;99.90;;;;;;4926141;28;20513;-77
2022/10/14 00:55:28;;;;;;;467.42;40.88;;;11.40;99.90;;;;;;4923878;29;20126;-77
2022/10/14 00:57:54;;;;;;;288.63;30.33;;;11.40;99.90;;;;;;4953784;28;20126;-77
2022/10/14 01:00:21;;;;;;;436.00;37.53;;;11.40;99.90;;;;;;4933654;28;20039;-77
2022/10/14 01:02:47;;;;;;;278.95;29.08;;;11.50;99.90;;;;;;4938555;28;20134;-77
2022/10/14 01:05:15;;;;;;;274.02;28.00;;;11.40;99.90;;;;;;4912984;29;20409;-77
2022/10/14 01:07:57;;;;;;;366.55;36.05;;;11.40;99.90;;;;;;4919896;29;20039;-78
2022/10/14 01:10:42;;;;;;;330.50;32.13;;;11.40;99.90;;;;;;4942913;28;20561;-77
2022/10/14 01:13:27;;;;;;;145.00;26.10;;;11.50;99.90;;;;;;4919067;29;20383;-77
2022/10/14 01:16:12;;;;;;;110.75;23.50;;;11.50;99.90;;;;;;4926276;29;20035;-77
2022/10/14 01:19:12;;;;;;;422.02;38.88;;;11.40;99.90;;;;;;4930873;28;20151;-77
2022/10/14 01:21:48;;;;;;;309.15;35.28;;;11.50;99.90;;;;;;4906929;28;20415;-77
2022/10/14 01:24:41;;;;;;;330.45;33.50;;;11.50;99.90;;;;;;4933193;28;20434;-77
2022/10/14 01:27:36;;;;;;;233.73;29.65;;;11.50;99.90;;;;;;4924099;28;20093;-77
2022/10/14 01:30:17;;;;;;;226.45;30.20;;;11.50;99.90;;;;;;4932103;28;20047;-77
2022/10/14 01:32:48;;;;;;;449.13;37.80;;;11.60;99.90;;;;;;4934722;28;20490;-77
2022/10/14 01:35:23;;;;;;;422.98;35.92;;;11.60;99.90;;;;;;4938900;29;20050;-77
2022/10/14 01:38:09;;;;;;;375.67;33.92;;;11.50;99.90;;;;;;4944290;28;20043;-77
2022/10/14 01:40:41;;;;;;;537.13;39.35;;;11.50;99.90;;;;;;4929539;29;21010;-77
2022/10/14 01:43:09;;;;;;;251.85;29.27;;;11.50;99.90;;;;;;4922686;28;20047;-77
2022/10/14 01:45:37;;;;;;;359.02;30.70;;;11.50;99.90;;;;;;4927911;29;20074;-77
2022/10/14 01:48:05;;;;;;;289.90;30.10;;;11.50;99.90;;;;;;4925181;28;20043;-77
2022/10/14 01:50:32;;;;;;;493.52;34.35;;;11.50;99.90;;;;;;4951465;28;20123;-77
2022/10/14 01:53:03;;;;;;;521.95;36.60;;;11.40;99.90;;;;;;4929019;29;20043;-77
2022/10/14 01:55:35;;;;;;;326.00;27.75;;;11.40;99.90;;;;;;4932192;28;20095;-76
2022/10/14 01:58:02;;;;;;;377.87;27.13;;;11.40;99.90;;;;;;4918836;29;20513;-77
2022/10/14 02:00:27;;;;;;;232.35;23.73;;;11.40;99.90;;;;;;4945637;28;20576;-77
2022/10/14 02:02:53;;;;;;;185.13;23.48;;;11.40;99.90;;;;;;4928953;28;20035;-77
2022/10/14 02:05:27;;;;;;;310.27;28.83;;;11.40;99.90;;;;;;4925479;29;20122;-77
2022/10/14 02:08:00;;;;;;;279.73;26.55;;;11.40;99.90;;;;;;4932670;29;20051;-77
2022/10/14 02:10:43;;;;;;;304.45;26.83;;;11.40;99.90;;;;;;4930859;29;20043;-77
2022/10/14 02:13:38;;;;;;;464.25;34.17;;;11.50;99.90;;;;;;4932442;29;20055;-77
2022/10/14 02:16:33;;;;;;;145.55;21.67;;;11.40;99.90;;;;;;4934852;28;20054;-77
2022/10/14 02:19:01;;;;;;;423.80;28.35;;;11.50;99.90;;;;;;4934957;28;20043;-77
2022/10/14 02:21:50;;;;;;;338.50;24.23;;;11.40;99.90;;;;;;4930515;29;20046;-77
2022/10/14 02:24:31;;;;;;;299.98;22.25;;;11.40;99.90;;;;;;4929598;28;20039;-77
2022/10/14 02:27:02;;;;;;;307.58;23.33;;;11.40;99.90;;;;;;4931214;29;20063;-77
2022/10/14 02:29:29;;;;;;;331.58;23.13;;;11.50;99.90;;;;;;4938150;28;20062;-77
2022/10/14 02:31:57;;;;;;;358.65;26.13;;;11.30;99.90;;;;;;4934809;29;20085;-77
2022/10/14 02:34:24;;;;;;;407.35;28.55;;;11.30;99.90;;;;;;4930584;29;20390;-77
2022/10/14 02:36:53;;;;;;;333.40;26.20;;;11.30;99.90;;;;;;4937645;28;20513;-76
2022/10/14 02:39:29;;;;;;;335.13;24.73;;;11.40;99.90;;;;;;4945310;28;20106;-77
2022/10/14 02:41:54;;;;;;;417.67;27.02;;;11.40;99.90;;;;;;4941029;29;20067;-77
2022/10/14 02:44:20;;;;;;;303.40;24.27;;;11.40;99.90;;;;;;4921325;28;20569;-77
2022/10/14 02:46:46;;;;;;;176.95;22.40;;;11.30;99.90;;;;;;4930789;29;20047;-77
2022/10/14 02:49:12;;;;;;;130.02;20.10;;;11.40;99.90;;;;;;4929201;28;20130;-77
2022/10/14 02:51:38;;;;;;;311.27;24.05;;;11.40;99.90;;;;;;4927058;29;20138;-76
2022/10/14 02:54:04;;;;;;;363.42;27.00;;;11.40;99.90;;;;;;4937068;28;20051;-77
2022/10/14 02:56:29;;;;;;;207.73;23.58;;;11.40;99.90;;;;;;4929269;29;20514;-77
2022/10/14 02:58:55;;;;;;;314.40;25.42;;;11.40;99.90;;;;;;4917251;28;20418;-77
2022/10/14 03:01:20;;;;;;;259.75;25.13;;;11.40;99.90;;;;;;4934132;29;20047;-77
2022/10/14 03:03:46;;;;;;;462.30;31.33;;;11.40;99.90;;;;;;4917765;29;20043;-77
2022/10/14 03:06:12;;;;;;;373.33;30.08;;;11.40;99.90;;;;;;4920674;29;20054;-76
2022/10/14 03:08:37;;;;;;;296.42;28.00;;;11.30;99.90;;;;;;4937074;28;20459;-77
2022/10/14 03:11:03;;;;;;;453.92;32.47;;;11.30;99.90;;;;;;4926702;29;20051;-76
2022/10/14 03:13:29;;;;;;;464.00;33.72;;;11.40;99.90;;;;;;4924183;28;20410;-77
2022/10/14 03:15:55;;;;;;;240.23;30.35;;;11.40;99.90;;;;;;4911807;29;20147;-77
2022/10/14 03:18:20;;;;;;;221.43;30.05;;;11.40;99.90;;;;;;4930415;29;20130;-77
2022/10/14 03:20:46;;;;;;;457.40;38.08;;;11.40;99.90;;;;;;4934792;28;20071;-77
2022/10/14 03:23:13;;;;;;;512.72;41.72;;;11.40;99.90;;;;;;4925691;29;20051;-77
2022/10/14 03:25:39;;;;;;;318.40;33.40;;;11.50;99.90;;;;;;4934642;28;20035;-76
2022/10/14 03:28:05;;;;;;;155.32;30.23;;;11.50;99.90;;;;;;4927385;29;20134;-76
2022/10/14 03:30:30;;;;;;;359.08;34.28;;;11.50;99.90;;;;;;4929064;29;20127;-77
2022/10/14 03:32:57;;;;;;;288.50;31.20;;;11.50;99.90;;;;;;4913619;28;20130;-77
2022/10/14 03:35:23;;;;;;;421.92;33.38;;;11.50;99.90;;;;;;4928368;29;20490;-77
2022/10/14 03:37:48;;;;;;;372.15;32.72;;;11.40;99.90;;;;;;4948378;28;20043;-77
2022/10/14 03:40:14;;;;;;;228.43;30.73;;;11.40;99.90;;;;;;4934280;28;20043;-76
2022/10/14 03:42:40;;;;;;;350.50;33.22;;;11.40;99.90;;;;;;4929382;29;20043;-77
2022/10/14 03:45:07;;;;;;;376.35;37.42;;;11.40;99.90;;;;;;4917941;28;20881;-77
2022/10/14 03:47:33;;;;;;;343.05;36.60;;;11.30;99.90;;;;;;4932644;29;20039;-77
2022/10/14 03:49:59;;;;;;;497.10;41.50;;;11.40;99.90;;;;;;4931042;29;20494;-77
2022/10/14 03:52:25;;;;;;;434.95;41.10;;;11.30;99.90;;;;;;4931956;28;20099;-77
2022/10/14 03:54:51;;;;;;;537.10;44.60;;;11.30;99.90;;;;;;4930300;29;20059;-76
2022/10/14 03:57:16;;;;;;;555.90;44.70;;;11.40;99.90;;;;;;4937423;28;20454;-77
2022/10/14 03:59:42;;;;;;;487.52;41.38;;;11.40;99.90;;;;;;4921900;29;20044;-77
2022/10/14 04:02:07;;;;;;;249.32;36.80;;;11.40;99.90;;;;;;4925020;28;20035;-76
2022/10/14 04:04:33;;;;;;;170.02;34.65;;;11.40;99.90;;;;;;4910678;29;20059;-77
2022/10/14 04:06:58;;;;;;;569.15;43.03;;;11.40;99.90;;;;;;4929570;28;20383;-77
2022/10/14 04:09:26;;;;;;;415.17;41.88;;;11.40;99.90;;;;;;4944323;28;20043;-77
2022/10/14 04:11:52;;;;;;;527.88;45.60;;;11.50;99.90;;;;;;4934927;28;20480;-77
2022/10/14 04:14:17;;;;;;;555.95;47.63;;;11.50;99.90;;;;;;4935373;29;20142;-77
2022/10/14 04:16:43;;;;;;;321.70;39.80;;;11.40;99.90;;;;;;4929393;29;20107;-77
2022/10/14 04:19:08;;;;;;;381.02;40.30;;;11.50;99.90;;;;;;4932029;28;20057;-77
2022/10/14 04:21:34;;;;;;;542.53;45.65;;;11.40;99.90;;;;;;4943992;28;20047;-77
2022/10/14 04:23:59;;;;;;;473.48;43.40;;;11.40;99.90;;;;;;4935041;28;20039;-77
2022/10/14 04:26:25;;;;;;;407.85;40.67;;;11.50;99.90;;;;;;4932301;29;20126;-76
2022/10/14 04:28:50;;;;;;;248.68;37.90;;;11.50;99.90;;;;;;4937392;28;20051;-77
2022/10/14 04:31:16;;;;;;;437.50;41.40;;;11.50;99.90;;;;;;4935494;29;20043;-77
2022/10/14 04:33:42;;;;;;;505.85;45.85;;;11.50;99.90;;;;;;4923674;28;20035;-77
2022/10/14 04:36:08;;;;;;;419.27;41.95;;;11.50;99.90;;;;;;4911376;29;20109;-77
2022/10/14 04:38:33;;;;;;;226.85;35.72;;;11.50;99.90;;;;;;4946804;28;20051;-77
2022/10/14 04:40:59;;;;;;;233.00;36.65;;;11.50;99.90;;;;;;4929214;28;20535;-77
2022/10/14 04:43:25;;;;;;;275.85;36.10;;;11.50;99.90;;;;;;4933174;29;20541;-77
2022/10/14 04:45:50;;;;;;;377.10;37.65;;;11.40;99.90;;;;;;4926070;28;20405;-77
2022/10/14 04:48:17;;;;;;;241.90;34.22;;;11.40;99.90;;;;;;4935964;29;20054;-77
2022/10/14 04:50:43;;;;;;;531.75;40.78;;;11.40;99.90;;;;;;4928958;28;20079;-77
2022/10/14 04:53:08;;;;;;;108.53;29.33;;;11.40;99.90;;;;;;4932076;29;20114;-76
2022/10/14 04:55:34;;;;;;;168.25;32.40;;;11.40;99.90;;;;;;4929909;28;20501;-76
2022/10/14 04:58:00;;;;;;;138.40;31.15;;;11.40;99.90;;;;;;4931115;29;20134;-77
2022/10/14 05:00:25;;;;;;;132.13;30.98;;;11.40;99.90;;;;;;4926239;29;20123;-77
2022/10/14 05:02:51;;;;;;;192.57;33.75;;;11.40;99.90;;;;;;4947341;28;20039;-78
2022/10/14 05:05:16;;;;;;;136.52;33.30;;;11.40;99.90;;;;;;4925310;29;20074;-77
2022/10/14 05:07:42;;;;;;;169.32;34.08;;;11.40;99.90;;;;;;4922809;28;20063;-77
2022/10/14 05:10:11;;;;;;;133.73;31.95;;;11.40;99.90;;;;;;4933762;29;20525;-76
2022/10/14 05:12:37;;;;;;;387.73;40.95;;;11.40;99.90;;;;;;4929421;28;20516;-77
2022/10/14 05:15:04;;;;;;;115.53;30.15;;;11.40;99.90;;;;;;4916405;29;20054;-77
2022/10/14 05:17:31;;;;;;;140.93;31.50;;;11.40;99.90;;;;;;4927789;28;20054;-77
2022/10/14 05:19:57;;;;;;;194.65;34.40;;;11.40;99.90;;;;;;4923344;29;20042;-77
2022/10/14 05:22:23;;;;;;;115.18;31.90;;;11.40;99.90;;;;;;4914094;28;20039;-77
2022/10/14 05:24:48;;;;;;;151.48;34.03;;;11.50;99.90;;;;;;4915178;28;20482;-77
2022/10/14 05:27:14;;;;;;;261.27;39.60;;;11.50;99.90;;;;;;4931464;29;20039;-77
2022/10/14 05:29:40;;;;;;;173.63;36.30;;;11.50;99.90;;;;;;4932304;28;20051;-77
2022/10/14 05:32:05;;;;;;;364.27;43.45;;;11.50;99.90;;;;;;4926439;29;20138;-75
2022/10/14 05:34:31;;;;;;;475.60;47.53;;;11.40;99.90;;;;;;4931787;28;20035;-75
2022/10/14 05:36:57;;;;;;;101.63;34.13;;;11.40;99.90;;;;;;4946321;28;20051;-77
2022/10/14 05:39:22;;;;;;;92.43;32.45;;;11.40;99.90;;;;;;4930730;29;20098;-77
2022/10/14 05:41:48;;;;;;;177.00;34.28;;;11.40;99.90;;;;;;4915291;28;20494;-76
2022/10/14 05:44:14;;;;;;;311.50;37.72;;;11.40;99.90;;;;;;4950364;28;20513;-76
2022/10/14 05:46:39;;;;;;;549.30;47.53;;;11.30;99.90;;;;;;4941992;28;20070;-76
2022/10/14 05:49:05;;;;;;;102.07;33.72;;;11.40;99.90;;;;;;4928036;28;20046;-77
2022/10/14 05:51:31;;;;;;;94.45;32.25;;;11.40;99.90;;;;;;4943135;28;20491;-76
2022/10/14 05:53:57;;;;;;;498.50;47.08;;;11.40;99.90;;;;;;4925110;28;20411;-76
2022/10/14 05:56:23;;;;;;;388.63;42.28;;;11.40;99.90;;;;;;4932036;28;20082;-76
2022/10/14 05:58:49;;;;;;;206.02;39.22;;;11.40;99.90;;;;;;4931636;28;20079;-77
2022/10/14 06:01:15;;;;;;;366.75;44.08;;;11.40;99.90;;;;;;4919748;29;20493;-76
2022/10/14 06:03:41;;;;;;;122.07;36.75;;;11.50;99.90;;;;;;4928720;28;20049;-75
2022/10/14 06:06:13;;;;;;;217.48;42.60;;;11.40;99.90;;;;;;4926277;29;20039;-75
2022/10/14 06:08:38;;;;;;;173.23;40.20;;;11.50;99.90;;;;;;4918232;28;20051;-76
2022/10/14 06:11:05;;;;;;;184.88;40.63;;;11.40;99.90;;;;;;4929336;28;20054;-76
2022/10/14 06:13:30;;;;;;;123.13;38.38;;;11.40;99.90;;;;;;4923812;29;20067;-76
2022/10/14 06:15:56;;;;;;;123.47;38.28;;;11.50;99.90;;;;;;4943597;28;20079;-76
2022/10/14 06:18:21;;;;;;;96.88;34.92;;;11.50;99.90;;;;;;4933288;29;20130;-76
2022/10/14 06:20:52;;;;;;;151.55;38.80;;;11.50;99.90;;;;;;4916923;28;22662;-75
2022/10/14 06:23:18;;;;;;;114.40;37.67;;;11.50;99.90;;;;;;4927129;28;20106;-76
2022/10/14 06:25:43;;;;;;;108.78;35.60;;;11.60;99.90;;;;;;4945562;28;20494;-76
2022/10/14 06:28:09;;;;;;;118.20;35.28;;;11.60;99.90;;;;;;4913415;28;20073;-76
2022/10/14 06:30:34;;;;;;;136.35;37.72;;;11.60;99.90;;;;;;4924694;28;20082;-76
2022/10/14 06:33:00;;;;;;;98.63;34.53;;;11.50;99.90;;;;;;4925292;28;20051;-76
2022/10/14 06:35:26;;;;;;;115.88;33.53;;;11.60;99.90;;;;;;4945483;28;20039;-76
2022/10/14 06:37:52;;;;;;;83.18;31.63;;;11.50;99.90;;;;;;4942207;28;20028;-76
2022/10/14 06:40:18;;;;;;;81.88;31.33;;;11.60;99.90;;;;;;4926221;28;20566;-76
2022/10/14 06:42:43;;;;;;;119.03;33.33;;;11.60;99.90;;;;;;4916044;28;20055;-76
2022/10/14 06:45:09;;;;;;;82.53;30.80;;;11.60;99.90;;;;;;4924999;28;20050;-76
2022/10/14 06:47:34;;;;;;;126.20;33.50;;;11.60;99.90;;;;;;4928663;29;20482;-76
2022/10/14 06:50:00;;;;;;;78.60;30.25;;;11.60;99.90;;;;;;4924611;28;20051;-76
2022/10/14 06:52:26;;;;;;;91.13;31.13;;;11.70;99.90;;;;;;4925698;28;20194;-76
2022/10/14 06:54:52;;;;;;;95.78;31.63;;;11.70;99.90;;;;;;4929606;28;20438;-76
2022/10/14 06:57:17;;;;;;;72.35;30.23;;;11.70;99.90;;;;;;4924037;28;20062;-75
2022/10/14 06:59:43;;;;;;;70.47;29.42;;;11.70;99.90;;;;;;4927934;28;20486;-75
2022/10/14 07:02:10;;;;;;;72.43;28.98;;;11.80;99.90;;;;;;4924466;28;20059;-75
2022/10/14 07:04:35;;;;;;;62.15;27.98;;;11.80;99.90;;;;;;4925341;28;20043;-75
2022/10/14 07:07:02;;;;;;;72.45;29.17;;;11.80;99.90;;;;;;4919215;28;20075;-75
2022/10/14 07:09:28;;;;;;;61.95;28.50;;;11.80;99.90;;;;;;4928840;28;20047;-75
2022/10/14 07:11:53;;;;;;;62.78;27.40;;;11.80;99.90;;;;;;4925235;28;20046;-75
2022/10/14 07:14:19;;;;;;;54.80;26.75;;;11.90;99.90;;;;;;4926760;28;20059;-76
2022/10/14 07:16:45;;;;;;;62.47;27.88;;;11.90;99.90;;;;;;4931165;28;20794;-76
2022/10/14 07:19:11;;;;;;;59.13;28.05;;;11.90;99.90;;;;;;4921201;28;20051;-76
2022/10/14 07:21:36;;;;;;;58.85;28.20;;;12.00;99.90;;;;;;4928616;28;20055;-76
2022/10/14 07:24:02;;;;;;;57.78;26.63;;;12.00;99.90;;;;;;4923978;28;20044;-76
2022/10/14 07:26:32;;;;;;;55.58;27.02;;;12.00;99.90;;;;;;4929404;28;20486;-75
2022/10/14 07:28:57;;;;;;;56.60;27.95;;;12.00;99.90;;;;;;4924553;28;20050;-76
2022/10/14 07:31:23;;;;;;;63.55;28.63;;;12.10;99.90;;;;;;4927530;28;20094;-76
2022/10/14 07:33:49;;;;;;;60.75;28.88;;;12.10;99.90;;;;;;4926592;28;20083;-76
2022/10/14 07:36:16;;;;;;;55.90;29.30;;;12.10;99.90;;;;;;4925707;28;20036;-76
2022/10/14 07:38:42;;;;;;;57.47;28.38;;;12.20;99.90;;;;;;4912402;28;20051;-76
2022/10/14 07:41:15;;;;;;;60.75;29.60;;;12.20;99.90;;;;;;4925348;28;20043;-75
2022/10/14 07:43:53;;;;;;;59.72;29.52;;;12.20;99.90;;;;;;4923689;28;20040;-75
2022/10/14 07:46:28;;;;;;;57.97;30.15;;;12.20;99.90;;;;;;4932554;28;20406;-76
2022/10/14 07:48:55;;;;;;;56.65;29.30;;;12.20;99.90;;;;;;4947004;28;20055;-75
2022/10/14 07:51:21;;;;;;;73.45;31.60;;;12.30;99.90;;;;;;4923679;28;20047;-75
2022/10/14 07:53:47;;;;;;;59.17;30.73;;;12.30;99.90;;;;;;4921126;28;20102;-76
2022/10/14 07:56:13;;;;;;;57.78;30.17;;;12.30;99.90;;;;;;4924371;28;20054;-75
2022/10/14 07:58:39;;;;;;;56.03;31.10;;;12.40;99.90;;;;;;4924503;28;20078;-75
2022/10/14 08:01:04;;;;;;;61.95;31.30;;;12.40;99.90;;;;;;4910442;29;20051;-75
2022/10/14 08:03:30;;;;;;;57.42;29.58;;;12.40;99.90;;;;;;4929678;29;20458;-75
2022/10/14 08:06:01;;;;;;;58.20;30.48;;;12.40;99.90;;;;;;4927498;28;20097;-75
2022/10/14 08:08:27;;;;;;;55.53;30.25;;;12.50;99.90;;;;;;4942763;29;20098;-75
2022/10/14 08:11:01;;;;;;;67.75;33.42;;;12.60;99.90;;;;;;4949243;28;20071;-75
2022/10/14 08:13:27;;;;;;;63.95;34.97;;;12.60;99.90;;;;;;4936099;29;20048;-75
2022/10/14 08:15:53;;;;;;;64.68;34.50;;;12.60;99.90;;;;;;4928741;28;20036;-74
2022/10/14 08:18:18;;;;;;;59.63;34.13;;;12.60;99.90;;;;;;4933589;28;20039;-75
2022/10/14 08:20:44;;;;;;;68.35;37.03;;;12.60;99.90;;;;;;4930985;28;20094;-75
2022/10/14 08:23:11;;;;;;;77.13;40.97;;;12.60;99.90;;;;;;4930076;29;20398;-75
2022/10/14 08:25:37;;;;;;;80.80;42.40;;;12.70;99.90;;;;;;4922513;28;20051;-74
2022/10/14 08:28:02;;;;;;;80.47;39.90;;;12.70;99.90;;;;;;4927445;28;20042;-75
2022/10/14 08:30:28;;;;;;;82.10;41.08;;;12.70;99.90;;;;;;4926681;28;20043;-75
2022/10/14 08:32:54;;;;;;;70.05;36.97;;;12.70;99.90;;;;;;4928266;28;20153;-75
2022/10/14 08:35:19;;;;;;;62.40;34.63;;;12.70;99.90;;;;;;4920738;28;20054;-75
2022/10/14 08:37:55;;;;;;;66.38;36.95;;;12.70;99.90;;;;;;4928549;28;20043;-75
2022/10/14 08:40:21;;;;;;;88.03;39.47;;;12.70;99.90;;;;;;4933007;28;20505;-75
2022/10/14 08:42:57;;;;;;;71.68;36.60;;;12.70;99.90;;;;;;4935787;28;20042;-75
2022/10/14 08:45:31;;;;;;;64.90;36.40;;;12.80;99.90;;;;;;4927452;28;20390;-74
2022/10/14 08:47:58;;;;;;;66.07;34.42;;;12.80;99.90;;;;;;4945695;28;20048;-75
2022/10/14 08:50:33;;;;;;;70.18;36.00;;;12.80;99.90;;;;;;4935482;28;20070;-75
2022/10/14 08:53:11;;;;;;;66.72;34.15;;;12.80;99.90;;;;;;4927352;28;20050;-74
2022/10/14 08:55:40;;;;;;;67.05;34.92;;;12.80;99.90;;;;;;4933343;28;20072;-75
2022/10/14 08:58:33;;;;;;;77.40;37.42;;;12.90;99.90;;;;;;4915727;28;20061;-75
2022/10/14 09:01:09;;;;;;;;;;;12.90;99.90;;;;;;4913496;29;20057;-75
2022/10/14 09:03:35;;;;;;;72.53;33.90;;;12.80;99.90;;;;;;4929211;28;20002;-74
2022/10/14 09:06:10;;;;;;;75.80;35.78;;;12.90;99.90;;;;;;4928106;28;20050;-74
2022/10/14 09:08:47;;;;;;;79.78;36.00;;;12.90;99.90;;;;;;4927197;29;20043;-75
2022/10/14 09:11:19;;;;;;;78.03;33.53;;;12.90;99.90;;;;;;4932824;28;20051;-75
2022/10/14 09:13:51;;;;;;;63.17;33.70;;;13.00;99.90;;;;;;4930862;28;20051;-74
2022/10/14 09:16:27;;;;;;;94.28;36.45;;;13.00;99.90;;;;;;4913639;28;20518;-75
2022/10/14 09:19:03;;;;;;;67.28;33.97;;;13.10;99.90;;;;;;4928146;28;20046;-74
2022/10/14 09:21:45;;;;;;;66.78;34.00;;;13.10;99.90;;;;;;4923715;28;20047;-74
2022/10/14 09:24:18;;;;;;;65.90;32.97;;;13.10;99.90;;;;;;4930527;28;20554;-76
2022/10/14 09:26:47;;;;;;;66.55;31.92;;;13.10;99.90;;;;;;4925430;29;20434;-77
2022/10/14 09:29:15;;;;;;;68.50;33.10;;;13.10;99.90;;;;;;4923660;28;20047;-77
2022/10/14 09:31:41;;;;;;;68.15;32.25;;;13.20;99.90;;;;;;4929524;28;20047;-76
2022/10/14 09:34:15;;;;;;;57.17;30.65;;;13.20;99.90;;;;;;4925166;29;20061;-76
2022/10/14 09:36:40;;;;;;;61.92;30.63;;;13.20;99.90;;;;;;4928836;28;20123;-75
2022/10/14 09:39:10;;;;;;;53.90;29.65;;;13.20;99.90;;;;;;4930406;29;20050;-75
2022/10/14 09:41:37;;;;;;;58.70;30.00;;;13.30;99.90;;;;;;4931797;28;20053;-75
2022/10/14 09:44:20;;;;;;;53.72;27.60;;;13.30;99.90;;;;;;4921819;28;20142;-75
2022/10/14 09:46:57;;;;;;;53.40;28.13;;;13.30;99.90;;;;;;4923575;28;20039;-75
2022/10/14 09:49:45;;;;;;;57.33;28.02;;;13.30;99.90;;;;;;4925228;28;20141;-75
2022/10/14 09:52:24;;;;;;;50.30;26.30;;;13.30;99.90;;;;;;4921679;28;20071;-75
2022/10/14 09:54:57;;;;;;;51.17;26.25;;;13.30;99.90;;;;;;4925061;28;20093;-73
2022/10/14 09:57:23;;;;;;;49.22;25.92;;;13.30;99.90;;;;;;4925050;28;20059;-74
2022/10/14 09:59:54;;;;;;;64.10;26.08;;;13.30;99.90;;;;;;4928452;28;20055;-75
2022/10/14 10:02:23;;;;;;;50.30;25.83;;;13.30;99.90;;;;;;4921392;28;20121;-75
2022/10/14 10:04:49;;;;;;;44.15;24.63;;;13.30;99.90;;;;;;4926458;28;20040;-75
2022/10/14 10:07:28;;;;;;;49.28;25.20;;;13.30;99.90;;;;;;4920672;28;20493;-75
2022/10/14 10:09:59;;;;;;;42.83;24.55;;;13.40;99.90;;;;;;4924602;28;20130;-74
2022/10/14 10:12:33;;;;;;;47.88;24.33;;;13.40;99.90;;;;;;4922008;28;20051;-74
2022/10/14 10:15:04;;;;;;;40.70;22.30;;;13.40;99.90;;;;;;4915800;28;20055;-75
2022/10/14 10:17:34;;;;;;;52.90;24.00;;;13.40;99.90;;;;;;4924252;29;20129;-75
2022/10/14 10:20:27;;;;;;;40.42;21.73;;;13.50;99.90;;;;;;4920347;28;20044;-74
2022/10/14 10:22:55;;;;;;;37.15;20.33;;;13.50;99.90;;;;;;4919985;28;20135;-74
2022/10/14 10:25:25;;;;;;;37.00;20.83;;;13.60;99.90;;;;;;4923342;28;20406;-75
2022/10/14 10:27:52;;;;;;;39.90;21.30;;;13.60;99.90;;;;;;4921764;28;20039;-75
2022/10/14 10:30:19;;;;;;;34.13;19.40;;;13.60;99.90;;;;;;4926218;28;20494;-75
2022/10/14 10:33:06;;;;;;;34.97;18.77;;;13.70;99.90;;;;;;4925761;28;20438;-75
2022/10/14 10:35:51;;;;;;;30.05;17.20;;;13.70;99.90;;;;;;4933213;28;20054;-75
2022/10/14 10:38:19;;;;;;;31.15;17.23;;;13.70;99.90;;;;;;4926959;28;20067;-75
2022/10/14 10:41:14;;;;;;;31.75;17.73;;;13.70;99.90;;;;;;4924142;28;20063;-76
2022/10/14 10:44:05;;;;;;;30.02;17.25;;;13.70;99.90;;;;;;4917041;28;20048;-76
2022/10/14 10:46:59;;;;;;;29.25;18.15;;;13.70;99.90;;;;;;4941621;28;20129;-76
2022/10/14 10:49:47;;;;;;;37.25;19.08;;;13.70;99.90;;;;;;4926223;28;20051;-76
2022/10/14 10:52:40;;;;;;;32.75;18.92;;;13.60;99.90;;;;;;4926662;28;20047;-76
2022/10/14 10:55:23;;;;;;;;;;;13.70;99.90;;;;;;4923110;28;20052;-75
2022/10/14 10:57:58;;;;;;;33.65;18.83;;;13.70;99.90;;;;;;4926985;28;19953;-75
2022/10/14 11:00:24;;;;;;;37.08;19.35;;;13.70;99.90;;;;;;4922609;28;20125;-76
2022/10/14 11:03:15;;;;;;;37.58;19.20;;;13.80;99.90;;;;;;4925943;28;20063;-75
2022/10/14 11:05:51;;;;;;;42.72;22.13;;;13.80;99.90;;;;;;4940015;28;20044;-73
2022/10/14 11:12:11;;;;;;;48.50;24.23;;;13.90;99.90;;;;;;4930431;29;20054;-77
2022/10/14 11:15:05;;;;;;;45.03;24.77;;;13.90;99.90;;;;;;4920286;28;20039;-76
2022/10/14 11:18:02;;;;;;;54.03;27.25;;;14.00;99.90;;;;;;4937319;28;20055;-76
2022/10/14 11:21:03;;;;;;;62.25;29.13;;;14.00;99.90;;;;;;4944162;28;20047;-76
2022/10/14 11:24:04;;;;;;;59.60;29.95;;;14.10;99.90;;;;;;4951882;28;20533;-76
2022/10/14 11:26:45;;;;;;;60.80;30.98;;;14.10;99.90;;;;;;4930746;28;20043;-76
2022/10/14 11:29:34;;;;;;;61.70;32.08;;;14.00;99.90;;;;;;4928907;28;20110;-75
2022/10/14 11:32:21;;;;;;;76.53;34.15;;;14.10;99.90;;;;;;4949682;28;20098;-75
2022/10/14 11:35:15;;;;;;;67.88;33.95;;;14.20;99.90;;;;;;4927573;28;20167;-75
2022/10/14 11:37:59;;;;;;;70.25;34.50;;;14.20;99.90;;;;;;4926173;28;20177;-76
2022/10/14 11:40:48;;;;;;;78.03;36.45;;;14.20;99.90;;;;;;4930942;28;20086;-75
2022/10/14 11:43:40;;;;;;;107.75;38.50;;;14.30;99.90;;;;;;4914922;28;20042;-75
2022/10/14 11:46:10;;;;;;;75.70;35.85;;;14.30;99.90;;;;;;4933807;28;20047;-76
2022/10/14 11:48:47;;;;;;;71.80;35.78;;;14.30;99.90;;;;;;4941893;28;20050;-75
2022/10/14 11:51:39;;;;;;;71.00;36.38;;;14.30;99.90;;;;;;4923930;28;20043;-75
2022/10/14 11:54:17;;;;;;;92.00;36.90;;;14.30;99.90;;;;;;4926605;28;20067;-76
2022/10/14 11:57:04;;;;;;;91.35;38.17;;;14.30;99.90;;;;;;4926941;28;20043;-75
2022/10/14 11:59:50;;;;;;;84.15;37.83;;;14.30;99.90;;;;;;4939150;28;20075;-75
2022/10/14 12:03:01;;;;;;;64.13;33.95;;;14.30;99.90;;;;;;4931155;28;20046;-76
2022/10/14 12:05:58;;;;;;;80.25;37.10;;;14.30;99.90;;;;;;4902177;28;20560;-76
2022/10/14 12:08:45;;;;;;;72.90;36.33;;;14.30;99.90;;;;;;4915970;28;20051;-76
2022/10/14 12:11:35;;;;;;;75.82;36.35;;;14.30;99.90;;;;;;4920960;28;20083;-76
2022/10/14 12:14:28;;;;;;;79.65;36.15;;;14.40;99.90;;;;;;4923701;28;20054;-76
2022/10/14 12:16:54;;;;;;;77.18;35.88;;;14.40;99.90;;;;;;4934285;28;20658;-76
2022/10/14 12:19:25;;;;;;;72.97;35.35;;;14.40;99.90;;;;;;4927448;28;20045;-76
2022/10/14 12:22:08;;;;;;;77.47;35.53;;;14.50;99.90;;;;;;4914470;28;20093;-76
2022/10/14 12:24:40;;;;;;;66.72;33.50;;;14.50;99.90;;;;;;4924166;28;20148;-76
2022/10/14 12:27:11;;;;;;;60.00;31.60;;;14.40;99.90;;;;;;4941523;28;20138;-75
2022/10/14 12:29:41;;;;;;;63.10;31.83;;;14.50;99.90;;;;;;4933815;28;20057;-76
2022/10/14 12:32:18;;;;;;;59.22;31.27;;;14.60;99.90;;;;;;4925418;29;20043;-76
2022/10/14 12:34:46;;;;;;;52.60;29.67;;;14.70;99.90;;;;;;4916597;28;20138;-75
2022/10/14 12:37:24;;;;;;;50.83;28.45;;;14.70;99.90;;;;;;4942793;28;20355;-76
2022/10/14 12:40:01;;;;;;;38.08;25.30;;;14.80;99.90;;;;;;4923488;28;20098;-76
2022/10/14 12:42:29;;;;;;;40.15;26.63;;;14.80;99.90;;;;;;4919399;28;20406;-77
2022/10/14 12:44:57;;;;;;;43.35;25.30;;;14.80;99.90;;;;;;4923934;29;20035;-77
2022/10/14 12:47:30;;;;;;;36.20;22.67;;;14.90;99.90;;;;;;4920697;28;20431;-76